sensor_id;sensor_type;location;lat;lon;timestamp;pressure;altitude;pressure_sealevel;temperature;humidity
14383;BME280;7275;50.328;8.720;2024-02-04T00:02:21;100589.69;;;15.08;54.49
14383;BME280;7275;50.328;8.720;2024-02-04T00:04:51;100588.50;;;15.15;54.30
14383;BME280;7275;50.328;8.720;2024-02-04T00:07:19;100597.53;;;15.11;54.44
14383;BME280;7275;50.328;8.720;2024-02-04T00:09:47;100592.28;;;15.09;54.53
14383;BME280;7275;50.328;8.720;2024-02-04T00:12:14;100594.06;;;15.09;54.32
14383;BME280;7275;50.328;8.720;2024-02-04T00:14:44;100597.53;;;15.11;54.31
14383;BME280;7275;50.328;8.720;2024-02-04T00:17:11;100604.63;;;15.12;54.29
14383;BME280;7275;50.328;8.720;2024-02-04T00:19:41;100591.56;;;15.06;54.59
14383;BME280;7275;50.328;8.720;2024-02-04T00:22:08;100594.16;;;15.07;54.53
14383;BME280;7275;50.328;8.720;2024-02-04T00:24:36;100584.59;;;15.02;54.68
14383;BME280;7275;50.328;8.720;2024-02-04T00:27:04;100595.88;;;15.08;54.49
14383;BME280;7275;50.328;8.720;2024-02-04T00:29:31;100585.22;;;15.08;54.46
14383;BME280;7275;50.328;8.720;2024-02-04T00:32:00;100572.91;;;15.06;54.79
14383;BME280;7275;50.328;8.720;2024-02-04T00:34:28;100560.50;;;15.05;54.66
14383;BME280;7275;50.328;8.720;2024-02-04T00:36:55;100560.88;;;14.96;55.09
14383;BME280;7275;50.328;8.720;2024-02-04T00:39:23;100568.06;;;14.94;55.05
14383;BME280;7275;50.328;8.720;2024-02-04T00:41:51;100573.09;;;15.01;54.76
14383;BME280;7275;50.328;8.720;2024-02-04T00:44:19;100565.13;;;15.01;54.48
14383;BME280;7275;50.328;8.720;2024-02-04T00:46:46;100562.88;;;14.91;54.88
14383;BME280;7275;50.328;8.720;2024-02-04T00:49:15;100557.63;;;14.89;54.92
14383;BME280;7275;50.328;8.720;2024-02-04T00:51:43;100561.31;;;14.85;55.02
14383;BME280;7275;50.328;8.720;2024-02-04T00:54:10;100561.22;;;14.88;54.77
14383;BME280;7275;50.328;8.720;2024-02-04T00:56:38;100563.88;;;14.88;54.80
14383;BME280;7275;50.328;8.720;2024-02-04T00:59:05;100568.16;;;14.92;54.49
14383;BME280;7275;50.328;8.720;2024-02-04T01:01:33;100568.84;;;14.76;55.18
14383;BME280;7275;50.328;8.720;2024-02-04T01:04:01;100565.19;;;14.78;55.05
14383;BME280;7275;50.328;8.720;2024-02-04T01:06:30;100556.50;;;14.73;55.29
14383;BME280;7275;50.328;8.720;2024-02-04T01:09:08;100563.88;;;14.67;55.49
14383;BME280;7275;50.328;8.720;2024-02-04T01:11:36;100563.03;;;14.66;55.64
14383;BME280;7275;50.328;8.720;2024-02-04T01:14:04;100557.44;;;14.72;55.30
14383;BME280;7275;50.328;8.720;2024-02-04T01:16:31;100550.38;;;14.71;55.43
14383;BME280;7275;50.328;8.720;2024-02-04T01:18:59;100554.09;;;14.67;55.70
14383;BME280;7275;50.328;8.720;2024-02-04T01:21:27;100560.97;;;14.73;55.62
14383;BME280;7275;50.328;8.720;2024-02-04T01:23:55;100557.56;;;14.69;55.67
14383;BME280;7275;50.328;8.720;2024-02-04T01:26:23;100566.34;;;14.71;55.67
14383;BME280;7275;50.328;8.720;2024-02-04T01:28:50;100579.03;;;14.65;56.09
14383;BME280;7275;50.328;8.720;2024-02-04T01:31:18;100573.66;;;14.66;55.98
14383;BME280;7275;50.328;8.720;2024-02-04T01:33:46;100577.41;;;14.61;56.45
14383;BME280;7275;50.328;8.720;2024-02-04T01:36:13;100571.19;;;14.62;56.35
14383;BME280;7275;50.328;8.720;2024-02-04T01:38:41;100571.56;;;14.74;55.89
14383;BME280;7275;50.328;8.720;2024-02-04T01:41:10;100578.50;;;14.78;55.83
14383;BME280;7275;50.328;8.720;2024-02-04T01:43:37;100574.03;;;14.79;55.82
14383;BME280;7275;50.328;8.720;2024-02-04T01:46:05;100583.50;;;14.86;55.46
14383;BME280;7275;50.328;8.720;2024-02-04T01:48:35;100578.59;;;14.75;56.00
14383;BME280;7275;50.328;8.720;2024-02-04T01:51:03;100581.34;;;14.74;55.92
14383;BME280;7275;50.328;8.720;2024-02-04T01:53:34;100578.44;;;14.80;55.74
14383;BME280;7275;50.328;8.720;2024-02-04T01:56:02;100571.97;;;14.85;55.43
14383;BME280;7275;50.328;8.720;2024-02-04T01:58:31;100574.88;;;14.79;55.78
14383;BME280;7275;50.328;8.720;2024-02-04T02:00:59;100575.59;;;14.84;55.71
14383;BME280;7275;50.328;8.720;2024-02-04T02:03:28;100567.59;;;14.84;55.57
14383;BME280;7275;50.328;8.720;2024-02-04T02:05:59;100573.84;;;14.83;55.67
14383;BME280;7275;50.328;8.720;2024-02-04T02:08:26;100588.19;;;14.79;55.99
14383;BME280;7275;50.328;8.720;2024-02-04T02:11:00;100571.13;;;14.85;55.64
14383;BME280;7275;50.328;8.720;2024-02-04T02:13:33;100568.31;;;14.88;55.70
14383;BME280;7275;50.328;8.720;2024-02-04T02:16:07;100564.31;;;14.78;56.19
14383;BME280;7275;50.328;8.720;2024-02-04T02:18:41;100560.66;;;14.80;55.77
14383;BME280;7275;50.328;8.720;2024-02-04T02:21:23;100559.72;;;14.81;55.89
14383;BME280;7275;50.328;8.720;2024-02-04T02:24:03;100556.50;;;14.73;56.44
14383;BME280;7275;50.328;8.720;2024-02-04T02:26:33;100545.84;;;14.73;56.32
14383;BME280;7275;50.328;8.720;2024-02-04T02:29:05;100544.06;;;14.74;56.31
14383;BME280;7275;50.328;8.720;2024-02-04T02:31:35;100535.19;;;14.75;56.13
14383;BME280;7275;50.328;8.720;2024-02-04T02:34:13;100546.66;;;14.75;55.98
14383;BME280;7275;50.328;8.720;2024-02-04T02:37:08;100540.72;;;14.69;56.54
14383;BME280;7275;50.328;8.720;2024-02-04T02:39:40;100539.88;;;14.68;56.41
14383;BME280;7275;50.328;8.720;2024-02-04T02:42:11;100533.06;;;14.61;56.82
14383;BME280;7275;50.328;8.720;2024-02-04T02:44:39;100528.59;;;14.62;56.80
14383;BME280;7275;50.328;8.720;2024-02-04T02:47:07;100536.66;;;14.60;56.93
14383;BME280;7275;50.328;8.720;2024-02-04T02:49:35;100523.81;;;14.48;57.37
14383;BME280;7275;50.328;8.720;2024-02-04T02:52:04;100531.53;;;14.56;57.18
14383;BME280;7275;50.328;8.720;2024-02-04T02:54:31;100519.13;;;14.55;57.32
14383;BME280;7275;50.328;8.720;2024-02-04T02:56:59;100524.16;;;14.40;57.75
14383;BME280;7275;50.328;8.720;2024-02-04T02:59:28;100524.69;;;14.49;57.56
14383;BME280;7275;50.328;8.720;2024-02-04T03:01:55;100511.56;;;14.44;57.30
14383;BME280;7275;50.328;8.720;2024-02-04T03:04:23;100512.19;;;14.51;57.22
14383;BME280;7275;50.328;8.720;2024-02-04T03:06:51;100502.94;;;14.39;57.80
14383;BME280;7275;50.328;8.720;2024-02-04T03:09:18;100499.91;;;14.25;58.76
14383;BME280;7275;50.328;8.720;2024-02-04T03:11:46;100491.66;;;14.09;59.23
14383;BME280;7275;50.328;8.720;2024-02-04T03:14:15;100509.69;;;14.24;58.58
14383;BME280;7275;50.328;8.720;2024-02-04T03:16:44;100502.69;;;14.22;58.68
14383;BME280;7275;50.328;8.720;2024-02-04T03:19:12;100498.47;;;14.16;59.15
14383;BME280;7275;50.328;8.720;2024-02-04T03:21:40;100504.63;;;14.18;59.12
14383;BME280;7275;50.328;8.720;2024-02-04T03:24:08;100497.72;;;14.13;59.22
14383;BME280;7275;50.328;8.720;2024-02-04T03:26:35;100499.72;;;14.08;59.36
14383;BME280;7275;50.328;8.720;2024-02-04T03:29:03;100498.59;;;14.13;59.24
14383;BME280;7275;50.328;8.720;2024-02-04T03:31:31;100495.88;;;14.15;59.17
14383;BME280;7275;50.328;8.720;2024-02-04T03:34:00;100499.47;;;14.14;59.08
14383;BME280;7275;50.328;8.720;2024-02-04T03:36:28;100492.16;;;14.19;59.21
14383;BME280;7275;50.328;8.720;2024-02-04T03:38:55;100487.53;;;14.24;59.04
14383;BME280;7275;50.328;8.720;2024-02-04T03:41:23;100482.28;;;14.22;58.98
14383;BME280;7275;50.328;8.720;2024-02-04T03:43:50;100488.69;;;13.95;60.32
14383;BME280;7275;50.328;8.720;2024-02-04T03:46:18;100486.00;;;14.18;59.26
14383;BME280;7275;50.328;8.720;2024-02-04T03:48:46;100490.31;;;14.21;59.15
14383;BME280;7275;50.328;8.720;2024-02-04T03:51:19;100475.16;;;14.23;59.09
14383;BME280;7275;50.328;8.720;2024-02-04T03:53:47;100479.50;;;14.25;58.96
14383;BME280;7275;50.328;8.720;2024-02-04T03:56:15;100476.69;;;14.30;58.94
14383;BME280;7275;50.328;8.720;2024-02-04T03:58:42;100489.88;;;14.33;58.88
14383;BME280;7275;50.328;8.720;2024-02-04T04:01:10;100482.56;;;14.38;58.55
14383;BME280;7275;50.328;8.720;2024-02-04T04:03:39;100485.41;;;14.33;58.71
14383;BME280;7275;50.328;8.720;2024-02-04T04:06:07;100494.25;;;14.34;58.88
14383;BME280;7275;50.328;8.720;2024-02-04T04:08:37;100491.81;;;14.28;59.32
14383;BME280;7275;50.328;8.720;2024-02-04T04:11:06;100495.22;;;14.31;58.92
14383;BME280;7275;50.328;8.720;2024-02-04T04:13:34;100489.63;;;14.39;58.65
14383;BME280;7275;50.328;8.720;2024-02-04T04:16:02;100484.59;;;14.31;58.93
14383;BME280;7275;50.328;8.720;2024-02-04T04:18:31;100486.16;;;14.37;58.78
14383;BME280;7275;50.328;8.720;2024-02-04T04:20:58;100498.03;;;14.27;59.46
14383;BME280;7275;50.328;8.720;2024-02-04T04:23:26;100478.22;;;14.35;59.11
14383;BME280;7275;50.328;8.720;2024-02-04T04:25:55;100491.59;;;14.34;59.01
14383;BME280;7275;50.328;8.720;2024-02-04T04:28:22;100499.16;;;14.21;59.77
14383;BME280;7275;50.328;8.720;2024-02-04T04:30:50;100476.69;;;14.30;59.40
14383;BME280;7275;50.328;8.720;2024-02-04T04:33:18;100477.06;;;14.19;59.67
14383;BME280;7275;50.328;8.720;2024-02-04T04:35:45;100474.16;;;14.25;59.59
14383;BME280;7275;50.328;8.720;2024-02-04T04:38:13;100480.97;;;14.34;59.05
14383;BME280;7275;50.328;8.720;2024-02-04T04:40:41;100482.88;;;14.30;59.40
14383;BME280;7275;50.328;8.720;2024-02-04T04:43:10;100475.72;;;14.32;59.13
14383;BME280;7275;50.328;8.720;2024-02-04T04:45:38;100479.84;;;14.39;58.89
14383;BME280;7275;50.328;8.720;2024-02-04T04:48:05;100481.59;;;14.40;58.80
14383;BME280;7275;50.328;8.720;2024-02-04T04:50:34;100483.53;;;14.35;59.01
14383;BME280;7275;50.328;8.720;2024-02-04T04:53:02;100477.97;;;14.41;58.84
14383;BME280;7275;50.328;8.720;2024-02-04T04:55:29;100485.03;;;14.43;58.81
14383;BME280;7275;50.328;8.720;2024-02-04T04:57:57;100482.47;;;14.41;59.01
14383;BME280;7275;50.328;8.720;2024-02-04T05:00:26;100479.41;;;14.28;59.49
14383;BME280;7275;50.328;8.720;2024-02-04T05:02:53;100472.00;;;14.36;59.20
14383;BME280;7275;50.328;8.720;2024-02-04T05:05:21;100462.25;;;14.35;58.97
14383;BME280;7275;50.328;8.720;2024-02-04T05:07:48;100485.41;;;14.33;59.13
14383;BME280;7275;50.328;8.720;2024-02-04T05:10:16;100467.84;;;14.29;59.36
14383;BME280;7275;50.328;8.720;2024-02-04T05:12:44;100472.78;;;14.38;58.88
14383;BME280;7275;50.328;8.720;2024-02-04T05:15:11;100467.22;;;14.45;58.71
14383;BME280;7275;50.328;8.720;2024-02-04T05:17:40;100472.53;;;14.45;58.75
14383;BME280;7275;50.328;8.720;2024-02-04T05:20:09;100471.84;;;14.39;59.01
14383;BME280;7275;50.328;8.720;2024-02-04T05:22:37;100475.81;;;14.29;59.57
14383;BME280;7275;50.328;8.720;2024-02-04T05:25:05;100477.97;;;14.41;59.07
14383;BME280;7275;50.328;8.720;2024-02-04T05:27:33;100468.47;;;14.36;59.16
14383;BME280;7275;50.328;8.720;2024-02-04T05:30:04;100461.03;;;14.44;58.90
14383;BME280;7275;50.328;8.720;2024-02-04T05:32:32;100473.78;;;14.36;59.19
14383;BME280;7275;50.328;8.720;2024-02-04T05:35:00;100480.59;;;14.43;59.01
14383;BME280;7275;50.328;8.720;2024-02-04T05:37:28;100483.38;;;14.40;59.08
14383;BME280;7275;50.328;8.720;2024-02-04T05:39:56;100485.38;;;14.35;59.28
14383;BME280;7275;50.328;8.720;2024-02-04T05:42:23;100481.31;;;14.47;58.83
14383;BME280;7275;50.328;8.720;2024-02-04T05:44:51;100475.47;;;14.38;59.17
14383;BME280;7275;50.328;8.720;2024-02-04T05:47:19;100481.50;;;14.42;58.88
14383;BME280;7275;50.328;8.720;2024-02-04T05:49:46;100486.97;;;14.39;59.12
14383;BME280;7275;50.328;8.720;2024-02-04T05:52:15;100485.97;;;14.41;59.00
14383;BME280;7275;50.328;8.720;2024-02-04T05:54:43;100498.81;;;14.52;58.60
14383;BME280;7275;50.328;8.720;2024-02-04T05:57:11;100484.44;;;14.58;58.35
14383;BME280;7275;50.328;8.720;2024-02-04T05:59:38;100496.78;;;14.59;58.30
14383;BME280;7275;50.328;8.720;2024-02-04T06:02:06;100488.75;;;14.60;58.21
14383;BME280;7275;50.328;8.720;2024-02-04T06:04:34;100483.31;;;14.63;57.98
14383;BME280;7275;50.328;8.720;2024-02-04T06:07:03;100478.53;;;14.71;57.92
14383;BME280;7275;50.328;8.720;2024-02-04T06:09:33;100477.72;;;14.69;58.14
14383;BME280;7275;50.328;8.720;2024-02-04T06:12:00;100479.31;;;14.73;57.78
14383;BME280;7275;50.328;8.720;2024-02-04T06:14:28;100480.31;;;14.71;57.90
14383;BME280;7275;50.328;8.720;2024-02-04T06:16:56;100483.19;;;14.66;58.07
14383;BME280;7275;50.328;8.720;2024-02-04T06:19:23;100478.53;;;14.71;57.91
14383;BME280;7275;50.328;8.720;2024-02-04T06:21:51;100466.28;;;14.67;57.83
14383;BME280;7275;50.328;8.720;2024-02-04T06:24:18;100464.34;;;14.71;57.79
14383;BME280;7275;50.328;8.720;2024-02-04T06:26:48;100473.38;;;14.67;57.78
14383;BME280;7275;50.328;8.720;2024-02-04T06:29:15;100479.56;;;14.67;57.75
14383;BME280;7275;50.328;8.720;2024-02-04T06:31:44;100482.88;;;14.52;58.31
14383;BME280;7275;50.328;8.720;2024-02-04T06:34:11;100473.72;;;14.59;58.00
14383;BME280;7275;50.328;8.720;2024-02-04T06:36:42;100481.25;;;14.48;58.51
14383;BME280;7275;50.328;8.720;2024-02-04T06:39:10;100463.13;;;14.58;58.20
14383;BME280;7275;50.328;8.720;2024-02-04T06:41:38;100469.44;;;14.55;58.36
14383;BME280;7275;50.328;8.720;2024-02-04T06:44:07;100480.16;;;14.54;58.36
14383;BME280;7275;50.328;8.720;2024-02-04T06:46:34;100471.16;;;14.56;58.06
14383;BME280;7275;50.328;8.720;2024-02-04T06:49:02;100466.47;;;14.63;58.07
14383;BME280;7275;50.328;8.720;2024-02-04T06:51:29;100455.78;;;14.64;57.88
14383;BME280;7275;50.328;8.720;2024-02-04T06:53:57;100457.94;;;14.55;58.32
14383;BME280;7275;50.328;8.720;2024-02-04T06:56:25;100464.44;;;14.48;58.48
14383;BME280;7275;50.328;8.720;2024-02-04T06:58:52;100470.00;;;14.63;57.71
14383;BME280;7275;50.328;8.720;2024-02-04T07:01:21;100465.66;;;14.61;58.04
14383;BME280;7275;50.328;8.720;2024-02-04T07:03:49;100475.13;;;14.68;57.85
14383;BME280;7275;50.328;8.720;2024-02-04T07:06:16;100473.78;;;14.58;58.30
14383;BME280;7275;50.328;8.720;2024-02-04T07:08:44;100469.38;;;14.57;58.38
14383;BME280;7275;50.328;8.720;2024-02-04T07:11:12;100474.41;;;14.64;58.02
14383;BME280;7275;50.328;8.720;2024-02-04T07:13:39;100481.31;;;14.68;57.88
14383;BME280;7275;50.328;8.720;2024-02-04T07:16:07;100481.44;;;14.65;58.06
14383;BME280;7275;50.328;8.720;2024-02-04T07:18:36;100483.84;;;14.71;57.66
14383;BME280;7275;50.328;8.720;2024-02-04T07:21:04;100488.38;;;14.69;58.06
14383;BME280;7275;50.328;8.720;2024-02-04T07:23:31;100475.06;;;14.69;57.97
14383;BME280;7275;50.328;8.720;2024-02-04T07:25:59;100481.00;;;14.76;57.86
14383;BME280;7275;50.328;8.720;2024-02-04T07:28:26;100468.22;;;14.64;58.38
14383;BME280;7275;50.328;8.720;2024-02-04T07:30:54;100467.59;;;14.57;58.55
14383;BME280;7275;50.328;8.720;2024-02-04T07:33:21;100476.13;;;14.65;58.20
14383;BME280;7275;50.328;8.720;2024-02-04T07:35:50;100477.88;;;14.66;58.37
14383;BME280;7275;50.328;8.720;2024-02-04T07:38:18;100471.34;;;14.73;57.98
14383;BME280;7275;50.328;8.720;2024-02-04T07:40:45;100470.22;;;14.79;57.79
14383;BME280;7275;50.328;8.720;2024-02-04T07:43:13;100471.69;;;14.86;57.71
14383;BME280;7275;50.328;8.720;2024-02-04T07:45:41;100477.09;;;14.84;57.62
14383;BME280;7275;50.328;8.720;2024-02-04T07:48:09;100473.97;;;14.95;57.32
14383;BME280;7275;50.328;8.720;2024-02-04T07:50:36;100461.09;;;14.84;57.81
14383;BME280;7275;50.328;8.720;2024-02-04T07:53:05;100466.50;;;14.83;57.87
14383;BME280;7275;50.328;8.720;2024-02-04T07:55:33;100463.50;;;14.90;57.76
14383;BME280;7275;50.328;8.720;2024-02-04T07:58:00;100454.84;;;14.85;57.84
14383;BME280;7275;50.328;8.720;2024-02-04T08:00:28;100470.44;;;14.94;57.82
14383;BME280;7275;50.328;8.720;2024-02-04T08:02:56;100476.75;;;14.92;57.63
14383;BME280;7275;50.328;8.720;2024-02-04T08:05:23;100477.69;;;14.91;57.53
14383;BME280;7275;50.328;8.720;2024-02-04T08:07:51;100470.25;;;14.99;57.47
14383;BME280;7275;50.328;8.720;2024-02-04T08:10:20;100465.72;;;15.01;57.75
14383;BME280;7275;50.328;8.720;2024-02-04T08:12:48;100460.91;;;15.09;57.34
14383;BME280;7275;50.328;8.720;2024-02-04T08:15:17;100444.34;;;15.02;57.43
14383;BME280;7275;50.328;8.720;2024-02-04T08:17:46;100445.00;;;15.07;57.58
14383;BME280;7275;50.328;8.720;2024-02-04T08:20:13;100449.81;;;14.99;57.86
14383;BME280;7275;50.328;8.720;2024-02-04T08:22:41;100453.91;;;15.06;57.75
14383;BME280;7275;50.328;8.720;2024-02-04T08:25:08;100444.59;;;14.96;58.16
14383;BME280;7275;50.328;8.720;2024-02-04T08:27:39;100451.34;;;15.05;57.86
14383;BME280;7275;50.328;8.720;2024-02-04T08:30:07;100461.78;;;15.09;57.82
14383;BME280;7275;50.328;8.720;2024-02-04T08:32:36;100468.91;;;15.09;58.15
14383;BME280;7275;50.328;8.720;2024-02-04T08:35:04;100456.66;;;14.85;58.76
14383;BME280;7275;50.328;8.720;2024-02-04T08:37:32;100467.91;;;15.11;58.00
14383;BME280;7275;50.328;8.720;2024-02-04T08:40:02;100458.38;;;15.26;57.84
14383;BME280;7275;50.328;8.720;2024-02-04T08:42:29;100456.13;;;15.37;57.50
14383;BME280;7275;50.328;8.720;2024-02-04T08:44:58;100459.78;;;15.35;57.30
14383;BME280;7275;50.328;8.720;2024-02-04T08:47:26;100438.38;;;15.36;57.33
14383;BME280;7275;50.328;8.720;2024-02-04T08:49:53;100446.75;;;15.29;57.62
14383;BME280;7275;50.328;8.720;2024-02-04T08:52:21;100439.88;;;15.43;57.19
14383;BME280;7275;50.328;8.720;2024-02-04T08:54:49;100443.66;;;15.58;56.94
14383;BME280;7275;50.328;8.720;2024-02-04T08:57:16;100438.44;;;15.55;56.86
14383;BME280;7275;50.328;8.720;2024-02-04T08:59:44;100449.00;;;15.58;57.05
14383;BME280;7275;50.328;8.720;2024-02-04T09:02:13;100438.59;;;15.52;56.83
14383;BME280;7275;50.328;8.720;2024-02-04T09:04:40;100440.06;;;15.39;57.30
14383;BME280;7275;50.328;8.720;2024-02-04T09:07:08;100448.00;;;15.60;56.67
14383;BME280;7275;50.328;8.720;2024-02-04T09:09:36;100445.09;;;15.65;56.64
14383;BME280;7275;50.328;8.720;2024-02-04T09:12:04;100448.50;;;15.68;56.54
14383;BME280;7275;50.328;8.720;2024-02-04T09:14:32;100453.53;;;15.74;56.38
14383;BME280;7275;50.328;8.720;2024-02-04T09:17:02;100447.13;;;15.78;56.36
14383;BME280;7275;50.328;8.720;2024-02-04T09:19:31;100440.41;;;15.70;56.31
14383;BME280;7275;50.328;8.720;2024-02-04T09:21:59;100439.75;;;15.65;56.77
14383;BME280;7275;50.328;8.720;2024-02-04T09:24:29;100434.94;;;15.73;56.50
14383;BME280;7275;50.328;8.720;2024-02-04T09:26:56;100432.22;;;15.74;56.72
14383;BME280;7275;50.328;8.720;2024-02-04T09:29:24;100441.09;;;15.75;56.88
14383;BME280;7275;50.328;8.720;2024-02-04T09:31:52;100433.50;;;15.66;57.38
14383;BME280;7275;50.328;8.720;2024-02-04T09:34:20;100438.91;;;15.83;56.98
14383;BME280;7275;50.328;8.720;2024-02-04T09:36:49;100435.97;;;15.70;57.12
14383;BME280;7275;50.328;8.720;2024-02-04T09:39:19;100448.41;;;15.88;56.67
14383;BME280;7275;50.328;8.720;2024-02-04T09:41:47;100450.44;;;15.83;56.94
14383;BME280;7275;50.328;8.720;2024-02-04T09:44:15;100432.41;;;15.88;56.67
14383;BME280;7275;50.328;8.720;2024-02-04T09:46:44;100427.16;;;15.87;56.81
14383;BME280;7275;50.328;8.720;2024-02-04T09:49:13;100434.66;;;15.97;56.43
14383;BME280;7275;50.328;8.720;2024-02-04T09:51:41;100434.72;;;15.96;56.33
14383;BME280;7275;50.328;8.720;2024-02-04T09:54:11;100426.97;;;15.91;56.19
14383;BME280;7275;50.328;8.720;2024-02-04T09:56:39;100426.22;;;15.88;56.45
14383;BME280;7275;50.328;8.720;2024-02-04T09:59:07;100426.00;;;15.92;56.35
14383;BME280;7275;50.328;8.720;2024-02-04T10:01:35;100436.59;;;15.94;56.63
14383;BME280;7275;50.328;8.720;2024-02-04T10:04:04;100427.09;;;15.88;56.65
14383;BME280;7275;50.328;8.720;2024-02-04T10:06:31;100438.03;;;15.82;56.96
14383;BME280;7275;50.328;8.720;2024-02-04T10:09:00;100430.34;;;15.95;56.42
14383;BME280;7275;50.328;8.720;2024-02-04T10:11:29;100443.09;;;15.88;56.68
14383;BME280;7275;50.328;8.720;2024-02-04T10:13:56;100447.34;;;15.92;56.52
14383;BME280;7275;50.328;8.720;2024-02-04T10:16:24;100437.88;;;15.85;56.59
14383;BME280;7275;50.328;8.720;2024-02-04T10:18:52;100439.13;;;15.97;56.25
14383;BME280;7275;50.328;8.720;2024-02-04T10:21:23;100433.00;;;15.95;56.45
14383;BME280;7275;50.328;8.720;2024-02-04T10:23:51;100430.69;;;16.06;55.95
14383;BME280;7275;50.328;8.720;2024-02-04T10:26:19;100438.91;;;16.02;56.02
14383;BME280;7275;50.328;8.720;2024-02-04T10:28:49;100429.63;;;15.91;56.36
14383;BME280;7275;50.328;8.720;2024-02-04T10:31:16;100428.88;;;15.88;56.51
14383;BME280;7275;50.328;8.720;2024-02-04T10:33:44;100419.50;;;15.98;56.24
14383;BME280;7275;50.328;8.720;2024-02-04T10:36:12;100416.00;;;15.97;56.30
14383;BME280;7275;50.328;8.720;2024-02-04T10:38:39;100423.75;;;16.02;56.17
14383;BME280;7275;50.328;8.720;2024-02-04T10:41:07;100414.41;;;15.93;56.02
14383;BME280;7275;50.328;8.720;2024-02-04T10:43:40;100420.53;;;15.95;56.32
14383;BME280;7275;50.328;8.720;2024-02-04T10:46:13;100424.84;;;15.98;56.28
14383;BME280;7275;50.328;8.720;2024-02-04T10:48:42;100433.50;;;16.03;56.15
14383;BME280;7275;50.328;8.720;2024-02-04T10:51:12;100428.53;;;15.95;56.18
14383;BME280;7275;50.328;8.720;2024-02-04T10:53:45;100429.81;;;16.06;56.08
14383;BME280;7275;50.328;8.720;2024-02-04T10:56:14;100415.47;;;16.08;56.13
14383;BME280;7275;50.328;8.720;2024-02-04T10:58:47;100415.69;;;16.04;56.38
14383;BME280;7275;50.328;8.720;2024-02-04T11:01:16;100418.94;;;16.10;56.64
14383;BME280;7275;50.328;8.720;2024-02-04T11:03:45;100414.56;;;16.26;56.56
14383;BME280;7275;50.328;8.720;2024-02-04T11:06:13;100400.00;;;16.33;56.63
14383;BME280;7275;50.328;8.720;2024-02-04T11:08:42;100409.78;;;16.51;55.95
14383;BME280;7275;50.328;8.720;2024-02-04T11:11:10;100393.31;;;16.60;55.65
14383;BME280;7275;50.328;8.720;2024-02-04T11:13:38;100402.75;;;16.49;56.08
14383;BME280;7275;50.328;8.720;2024-02-04T11:16:18;100394.66;;;16.52;55.73
14383;BME280;7275;50.328;8.720;2024-02-04T11:19:11;100398.41;;;16.65;55.53
14383;BME280;7275;50.328;8.720;2024-02-04T11:25:03;100389.03;;;16.56;56.11
14383;BME280;7275;50.328;8.720;2024-02-04T11:27:34;100379.16;;;16.75;56.06
14383;BME280;7275;50.328;8.720;2024-02-04T11:30:02;100378.81;;;16.99;55.95
14383;BME280;7275;50.328;8.720;2024-02-04T11:32:34;100382.13;;;17.36;54.76
14383;BME280;7275;50.328;8.720;2024-02-04T11:35:02;100377.97;;;17.64;53.48
14383;BME280;7275;50.328;8.720;2024-02-04T11:37:34;100375.41;;;17.93;53.52
14383;BME280;7275;50.328;8.720;2024-02-04T11:40:03;100368.22;;;18.09;53.12
14383;BME280;7275;50.328;8.720;2024-02-04T11:42:32;100370.13;;;18.07;52.36
14383;BME280;7275;50.328;8.720;2024-02-04T11:45:07;100371.69;;;18.11;51.58
14383;BME280;7275;50.328;8.720;2024-02-04T11:47:37;100365.66;;;18.08;51.83
14383;BME280;7275;50.328;8.720;2024-02-04T11:50:05;100367.97;;;18.14;51.70
14383;BME280;7275;50.328;8.720;2024-02-04T11:52:33;100370.13;;;18.07;51.29
14383;BME280;7275;50.328;8.720;2024-02-04T11:55:01;100366.78;;;18.04;51.21
14383;BME280;7275;50.328;8.720;2024-02-04T11:57:30;100364.88;;;18.06;51.44
14383;BME280;7275;50.328;8.720;2024-02-04T11:59:59;100346.25;;;18.04;51.95
14383;BME280;7275;50.328;8.720;2024-02-04T12:02:28;100359.47;;;18.21;51.70
14383;BME280;7275;50.328;8.720;2024-02-04T12:04:59;100365.19;;;18.31;51.92
14383;BME280;7275;50.328;8.720;2024-02-04T12:07:28;100353.59;;;18.30;52.19
14383;BME280;7275;50.328;8.720;2024-02-04T12:09:56;100349.09;;;18.47;51.79
14383;BME280;7275;50.328;8.720;2024-02-04T12:12:24;100355.50;;;18.88;52.08
14383;BME280;7275;50.328;8.720;2024-02-04T12:14:52;100351.19;;;19.43;51.52
14383;BME280;7275;50.328;8.720;2024-02-04T12:17:20;100354.13;;;19.67;50.22
14383;BME280;7275;50.328;8.720;2024-02-04T12:19:48;100345.41;;;19.77;49.23
14383;BME280;7275;50.328;8.720;2024-02-04T12:22:18;100336.72;;;19.86;48.60
14383;BME280;7275;50.328;8.720;2024-02-04T12:24:45;100347.53;;;19.99;48.49
14383;BME280;7275;50.328;8.720;2024-02-04T12:27:15;100339.19;;;20.04;48.32
14383;BME280;7275;50.328;8.720;2024-02-04T12:29:43;100331.44;;;20.26;47.52
14383;BME280;7275;50.328;8.720;2024-02-04T12:32:13;100323.84;;;20.06;46.45
14383;BME280;7275;50.328;8.720;2024-02-04T12:34:41;100339.47;;;19.99;47.08
14383;BME280;7275;50.328;8.720;2024-02-04T12:37:14;100326.88;;;19.87;47.23
14383;BME280;7275;50.328;8.720;2024-02-04T12:39:44;100321.88;;;19.54;47.32
14383;BME280;7275;50.328;8.720;2024-02-04T12:42:14;100331.44;;;19.44;47.93
14383;BME280;7275;50.328;8.720;2024-02-04T12:44:45;100321.38;;;19.20;48.47
14383;BME280;7275;50.328;8.720;2024-02-04T12:47:12;100330.66;;;19.00;48.73
14383;BME280;7275;50.328;8.720;2024-02-04T12:49:41;100333.31;;;18.86;48.90
14383;BME280;7275;50.328;8.720;2024-02-04T12:52:09;100327.53;;;18.64;49.16
14383;BME280;7275;50.328;8.720;2024-02-04T12:54:44;100325.00;;;18.47;49.55
14383;BME280;7275;50.328;8.720;2024-02-04T12:57:21;100335.28;;;18.38;49.65
14383;BME280;7275;50.328;8.720;2024-02-04T12:59:49;100334.97;;;18.29;49.92
14383;BME280;7275;50.328;8.720;2024-02-04T13:02:17;100324.13;;;18.16;50.42
14383;BME280;7275;50.328;8.720;2024-02-04T13:04:44;100312.94;;;18.24;50.36
14383;BME280;7275;50.328;8.720;2024-02-04T13:07:13;100309.72;;;18.03;50.47
14383;BME280;7275;50.328;8.720;2024-02-04T13:09:44;100313.69;;;18.12;50.33
14383;BME280;7275;50.328;8.720;2024-02-04T13:12:14;100328.88;;;18.11;50.33